Time;durP1;ratioP1;P1;durP2;ratioP2;P2;SDS_P1;SDS_P2;PMS_P1;PMS_P2;Temp;Humidity;BMP_temperature;BMP_pressure;BME280_temperature;BME280_humidity;BME280_pressure;Samples;Min_cycle;Max_cycle;Signal;HPM_P1;HPM_P2
2023/06/30 00:00:11;;;;;;;8.10;4.50;;;;;;;;;;106994;1274;25347;-90
2023/06/30 00:04:09;;;;;;;;;;;;;;;;;;;;;
2023/06/30 00:07:21;;;;;;;11.10;4.80;;;;;;;;;;106485;1283;22551;-90
2023/06/30 00:10:18;;;;;;;8.80;4.90;;;;;;;;;;106480;1271;22493;-91
2023/06/30 00:13:03;;;;;;;;;;;;;;;;;;;;;
2023/06/30 00:15:32;;;;;;;8.90;4.70;;;;;;;;;;106521;1282;25230;-86
2023/06/30 00:18:01;;;;;;;7.80;4.10;;;;;;;;;;106502;1281;22660;-86
2023/06/30 00:20:39;;;;;;;10.10;4.10;;;;;;;;;;106509;1281;25294;-89
2023/06/30 00:23:11;;;;;;;9.70;4.10;;;;;;;;;;106464;1265;22533;-86
2023/06/30 00:25:50;;;;;;;10.40;4.20;;;;;;;;;;106512;1281;25338;-93
2023/06/30 00:28:29;;;;;;;;;;;;;;;;;;;;;
2023/06/30 00:31:02;;;;;;;8.20;3.70;;;;;;;;;;106573;1280;22534;-86
2023/06/30 00:33:28;;;;;;;10.10;4.20;;;;;;;;;;106489;1264;25301;-87
2023/06/30 00:35:59;;;;;;;10.10;3.90;;;;;;;;;;106538;1279;22789;-86
2023/06/30 00:38:26;;;;;;;7.70;3.90;;;;;;;;;;106554;1281;25243;-90
2023/06/30 00:41:05;;;;;;;9.50;4.00;;;;;;;;;;106539;1281;23915;-88
2023/06/30 00:43:38;;;;;;;8.60;3.90;;;;;;;;;;106913;1274;24653;-90
2023/06/30 00:46:05;;;;;;;9.10;4.20;;;;;;;;;;107018;1274;25395;-91
2023/06/30 00:48:31;;;;;;;7.90;3.70;;;;;;;;;;107171;1264;24381;-87
2023/06/30 00:50:59;;;;;;;9.40;3.90;;;;;;;;;;107042;1274;23901;-86
2023/06/30 00:53:27;;;;;;;9.90;3.70;;;;;;;;;;110622;1258;22226;-85
2023/06/30 00:55:53;;;;;;;10.20;3.70;;;;;;;;;;110603;1272;22153;-85
2023/06/30 00:58:19;;;;;;;9.60;3.90;;;;;;;;;;110628;1274;22970;-85
2023/06/30 01:00:45;;;;;;;9.50;4.00;;;;;;;;;;110615;1274;23094;-85
2023/06/30 01:03:25;;;;;;;8.20;4.10;;;;;;;;;;110615;1274;23061;-85
2023/06/30 01:05:55;;;;;;;10.80;3.90;;;;;;;;;;110539;1258;22144;-85
2023/06/30 01:08:31;;;;;;;9.30;4.30;;;;;;;;;;110555;1274;22454;-86
2023/06/30 01:11:01;;;;;;;10.00;4.00;;;;;;;;;;110629;1274;22125;-85
2023/06/30 01:13:28;;;;;;;10.10;4.00;;;;;;;;;;110650;1274;22158;-85
2023/06/30 01:16:04;;;;;;;9.30;3.80;;;;;;;;;;110733;1256;22142;-85
2023/06/30 01:18:32;;;;;;;7.90;3.50;;;;;;;;;;110623;1274;22247;-85
2023/06/30 01:20:59;;;;;;;10.50;3.60;;;;;;;;;;110638;1274;22314;-85
2023/06/30 01:23:50;;;;;;;7.90;3.80;;;;;;;;;;110614;1274;22437;-85
2023/06/30 01:26:16;;;;;;;8.00;3.40;;;;;;;;;;110531;1274;22170;-85
2023/06/30 01:28:42;;;;;;;7.80;3.30;;;;;;;;;;110614;1274;22125;-86
2023/06/30 01:31:09;;;;;;;7.80;3.60;;;;;;;;;;110664;1274;22882;-85
2023/06/30 01:33:38;;;;;;;8.30;3.50;;;;;;;;;;110663;1274;22853;-85
2023/06/30 01:36:08;;;;;;;8.00;3.80;;;;;;;;;;110695;1269;22822;-86
2023/06/30 01:38:35;;;;;;;9.30;4.10;;;;;;;;;;110620;1274;22171;-85
2023/06/30 01:41:04;;;;;;;8.30;4.00;;;;;;;;;;110619;1274;22329;-85
2023/06/30 01:43:40;;;;;;;6.60;3.20;;;;;;;;;;110641;1274;22695;-85
2023/06/30 01:46:06;;;;;;;8.30;3.70;;;;;;;;;;110771;1256;22119;-85
2023/06/30 01:48:33;;;;;;;7.20;3.10;;;;;;;;;;110549;1275;22117;-86
2023/06/30 01:51:03;;;;;;;8.30;3.60;;;;;;;;;;110658;1275;22124;-85
2023/06/30 01:53:29;;;;;;;8.00;3.90;;;;;;;;;;110523;1265;22745;-86
2023/06/30 02:03:17;;;;;;;7.60;3.70;;;;;;;;;;110046;1282;22911;-85
2023/06/30 02:05:54;;;;;;;9.70;4.10;;;;;;;;;;110052;1262;22133;-85
2023/06/30 02:08:20;;;;;;;7.30;3.80;;;;;;;;;;109982;1282;22178;-85
2023/06/30 02:10:48;;;;;;;9.80;3.70;;;;;;;;;;110017;1281;22190;-85
2023/06/30 02:13:14;;;;;;;10.10;3.40;;;;;;;;;;109965;1281;22826;-85
2023/06/30 02:15:42;;;;;;;9.20;3.50;;;;;;;;;;110041;1260;22090;-85
2023/06/30 02:18:09;;;;;;;6.90;3.40;;;;;;;;;;109988;1283;22961;-86
2023/06/30 02:20:35;;;;;;;9.00;3.30;;;;;;;;;;110025;1283;23006;-85
2023/06/30 02:23:01;;;;;;;8.20;3.80;;;;;;;;;;109990;1283;22151;-85
2023/06/30 02:25:28;;;;;;;6.60;3.30;;;;;;;;;;109961;1259;22273;-85
2023/06/30 02:27:54;;;;;;;8.60;3.90;;;;;;;;;;109976;1281;22166;-85
2023/06/30 02:30:34;;;;;;;7.30;3.60;;;;;;;;;;110055;1281;22452;-85
2023/06/30 02:33:11;;;;;;;8.90;3.20;;;;;;;;;;110062;1281;22162;-85
2023/06/30 02:35:37;;;;;;;8.30;3.30;;;;;;;;;;110264;1251;22889;-85
2023/06/30 02:38:06;;;;;;;8.60;3.70;;;;;;;;;;110527;1275;22123;-85
2023/06/30 02:40:32;;;;;;;7.80;3.60;;;;;;;;;;110674;1275;21980;-85
2023/06/30 02:42:58;;;;;;;6.60;2.70;;;;;;;;;;110498;1275;22111;-85
2023/06/30 02:45:34;;;;;;;10.70;2.80;;;;;;;;;;110640;1271;22134;-85
2023/06/30 02:48:01;;;;;;;8.70;3.50;;;;;;;;;;110727;1256;22904;-85
2023/06/30 02:50:28;;;;;;;7.40;3.10;;;;;;;;;;110469;1275;22100;-85
2023/06/30 02:52:57;;;;;;;7.50;2.90;;;;;;;;;;110650;1275;22152;-86
2023/06/30 02:55:26;;;;;;;9.00;3.70;;;;;;;;;;110652;1273;22149;-86
2023/06/30 03:05:17;;;;;;;9.30;3.60;;;;;;;;;;110039;1282;22155;-85
2023/06/30 03:07:44;;;;;;;6.70;3.30;;;;;;;;;;110051;1266;22172;-85
2023/06/30 03:10:11;;;;;;;7.60;3.40;;;;;;;;;;109980;1282;21932;-85
2023/06/30 03:12:41;;;;;;;7.70;3.00;;;;;;;;;;110051;1279;22332;-85
2023/06/30 03:15:08;;;;;;;7.60;3.00;;;;;;;;;;110043;1282;22163;-86
2023/06/30 03:17:44;;;;;;;8.00;3.00;;;;;;;;;;110159;1263;23040;-85
2023/06/30 03:20:23;;;;;;;8.70;3.20;;;;;;;;;;110002;1282;22970;-85
2023/06/30 03:22:57;;;;;;;7.90;3.30;;;;;;;;;;110051;1282;22120;-86
2023/06/30 03:25:23;;;;;;;7.90;3.40;;;;;;;;;;110029;1282;22059;-86
2023/06/30 03:27:51;;;;;;;7.90;3.20;;;;;;;;;;109984;1268;23017;-85
2023/06/30 03:30:25;;;;;;;8.00;3.40;;;;;;;;;;110002;1282;22172;-85
2023/06/30 03:32:51;;;;;;;8.90;3.90;;;;;;;;;;110035;1282;22172;-85
2023/06/30 03:35:17;;;;;;;7.60;3.40;;;;;;;;;;110014;1282;21715;-85
2023/06/30 03:37:44;;;;;;;9.80;3.30;;;;;;;;;;110356;1256;22907;-85
2023/06/30 03:40:40;;;;;;;7.40;3.20;;;;;;;;;;110493;1275;22115;-85
2023/06/30 03:43:10;;;;;;;7.60;2.70;;;;;;;;;;110538;1275;22075;-85
2023/06/30 03:45:38;;;;;;;8.40;3.60;;;;;;;;;;110539;1275;22083;-85
2023/06/30 03:48:14;;;;;;;9.00;3.50;;;;;;;;;;110686;1259;22821;-85
2023/06/30 03:50:43;;;;;;;12.40;3.80;;;;;;;;;;110652;1272;22824;-85
2023/06/30 03:53:10;;;;;;;7.50;3.50;;;;;;;;;;110392;1275;22992;-85
2023/06/30 03:55:37;;;;;;;8.80;3.40;;;;;;;;;;110611;1276;22292;-85
2023/06/30 04:05:42;;;;;;;8.70;3.10;;;;;;;;;;107220;1276;3354431;-85
2023/06/30 04:15:17;;;;;;;8.30;3.20;;;;;;;;;;109816;1286;22250;-85
2023/06/30 04:17:52;;;;;;;9.50;2.90;;;;;;;;;;109729;1264;22439;-84
2023/06/30 04:21:13;;;;;;;12.40;3.00;;;;;;;;;;109772;1286;22156;-85
2023/06/30 04:23:34;;;;;;;6.40;2.60;;;;;;;;;;109801;1286;22928;-85
2023/06/30 04:26:14;;;;;;;6.50;2.70;;;;;;;;;;109779;1286;22189;-85
2023/06/30 04:28:40;;;;;;;8.10;2.60;;;;;;;;;;109758;1270;22173;-84
2023/06/30 04:31:08;;;;;;;8.60;3.00;;;;;;;;;;109826;1286;22122;-85
2023/06/30 04:33:37;;;;;;;11.90;2.80;;;;;;;;;;109737;1286;22816;-85
2023/06/30 04:36:03;;;;;;;6.50;2.50;;;;;;;;;;109749;1286;22679;-85
2023/06/30 04:38:46;;;;;;;9.00;2.70;;;;;;;;;;109826;1267;22339;-84
2023/06/30 04:41:25;;;;;;;9.20;2.70;;;;;;;;;;109819;1286;22394;-85
2023/06/30 04:44:02;;;;;;;6.60;2.30;;;;;;;;;;109814;1286;22316;-84
2023/06/30 04:50:11;;;;;;;6.00;2.60;;;;;;;;;;109537;1273;22350;-84
2023/06/30 04:52:37;;;;;;;9.10;2.70;;;;;;;;;;109560;1290;22055;-85
2023/06/30 04:55:07;;;;;;;9.50;2.70;;;;;;;;;;109567;1290;22934;-84
2023/06/30 04:57:33;;;;;;;7.00;2.70;;;;;;;;;;109499;1290;23081;-85
2023/06/30 04:59:59;;;;;;;9.40;2.90;;;;;;;;;;109533;1274;22886;-85
2023/06/30 05:02:25;;;;;;;9.50;3.10;;;;;;;;;;109511;1290;22389;-85
2023/06/30 05:04:54;;;;;;;15.50;3.60;;;;;;;;;;109527;1290;22144;-85
2023/06/30 05:07:30;;;;;;;10.70;3.90;;;;;;;;;;109367;1290;22254;-84
2023/06/30 05:10:07;;;;;;;13.80;3.10;;;;;;;;;;109510;1272;22299;-85
2023/06/30 05:12:33;;;;;;;9.40;2.90;;;;;;;;;;109506;1290;22980;-85
2023/06/30 05:15:08;;;;;;;10.50;2.90;;;;;;;;;;109476;1290;22149;-85
2023/06/30 05:17:35;;;;;;;16.00;3.30;;;;;;;;;;109380;1272;22149;-85
2023/06/30 05:20:05;;;;;;;12.70;3.70;;;;;;;;;;109341;1273;22154;-85
2023/06/30 05:22:31;;;;;;;15.20;4.20;;;;;;;;;;109547;1290;22211;-85
2023/06/30 05:24:57;;;;;;;19.20;4.00;;;;;;;;;;109585;1290;22180;-85
2023/06/30 05:27:23;;;;;;;11.50;3.30;;;;;;;;;;109908;1279;22109;-85
2023/06/30 05:29:50;;;;;;;17.10;4.00;;;;;;;;;;110059;1264;22134;-84
2023/06/30 05:32:16;;;;;;;30.00;5.30;;;;;;;;;;110212;1279;22113;-85
2023/06/30 05:34:42;;;;;;;28.60;4.70;;;;;;;;;;110069;1280;22257;-85
2023/06/30 05:37:12;;;;;;;21.10;3.80;;;;;;;;;;110215;1280;22111;-85
2023/06/30 05:46:55;;;;;;;13.60;3.20;;;;;;;;;;110206;1280;22757;-88
2023/06/30 05:49:33;;;;;;;14.70;3.40;;;;;;;;;;110118;1268;23249;-86
2023/06/30 05:52:00;;;;;;;14.40;2.90;;;;;;;;;;110074;1261;22119;-89
2023/06/30 05:54:27;;;;;;;51.80;5.60;;;;;;;;;;110122;1280;22105;-88
2023/06/30 05:56:54;;;;;;;47.90;4.90;;;;;;;;;;110141;1281;22104;-88
2023/06/30 05:59:21;;;;;;;18.10;3.40;;;;;;;;;;109997;1280;22173;-87
2023/06/30 06:01:50;;;;;;;10.80;2.90;;;;;;;;;;110095;1263;22271;-88
2023/06/30 06:04:18;;;;;;;14.80;2.90;;;;;;;;;;110058;1280;22157;-88
2023/06/30 06:06:45;;;;;;;12.90;2.80;;;;;;;;;;110129;1280;22147;-86
2023/06/30 06:09:12;;;;;;;12.60;2.80;;;;;;;;;;110051;1281;22166;-88
2023/06/30 06:11:43;;;;;;;17.40;3.10;;;;;;;;;;110311;1263;22126;-84
2023/06/30 06:14:23;;;;;;;13.90;3.00;;;;;;;;;;110118;1278;22152;-87
2023/06/30 06:16:50;;;;;;;11.20;2.70;;;;;;;;;;110113;1280;22140;-88
2023/06/30 06:19:17;;;;;;;10.50;2.70;;;;;;;;;;109963;1280;22219;-88
2023/06/30 06:21:52;;;;;;;14.60;2.80;;;;;;;;;;110060;1263;22126;-90
2023/06/30 06:24:22;;;;;;;9.40;2.50;;;;;;;;;;110121;1277;22453;-86
2023/06/30 06:26:49;;;;;;;9.40;2.60;;;;;;;;;;110003;1280;22125;-87
2023/06/30 06:29:22;;;;;;;11.10;3.20;;;;;;;;;;110117;1280;22133;-88
2023/06/30 06:31:54;;;;;;;12.70;2.80;;;;;;;;;;110116;1266;22218;-87
2023/06/30 06:34:24;;;;;;;11.00;2.70;;;;;;;;;;110057;1280;22115;-89
2023/06/30 06:36:53;;;;;;;9.40;2.30;;;;;;;;;;110137;1280;22120;-89
2023/06/30 06:39:20;;;;;;;29.00;4.10;;;;;;;;;;110132;1280;22058;-88
2023/06/30 06:41:47;;;;;;;30.30;4.00;;;;;;;;;;110193;1260;22161;-86
2023/06/30 06:44:20;;;;;;;16.20;3.60;;;;;;;;;;110038;1281;22774;-83
2023/06/30 06:46:47;;;;;;;16.60;2.80;;;;;;;;;;110054;1281;22268;-83
2023/06/30 06:49:17;;;;;;;25.90;3.80;;;;;;;;;;109982;1281;22125;-83
2023/06/30 06:51:44;;;;;;;18.90;3.10;;;;;;;;;;110124;1270;22167;-84
2023/06/30 06:54:10;;;;;;;12.50;3.10;;;;;;;;;;110038;1281;22804;-83
2023/06/30 06:56:37;;;;;;;14.70;3.00;;;;;;;;;;110005;1281;22400;-84
2023/06/30 06:59:08;;;;;;;20.20;3.20;;;;;;;;;;109999;1281;22214;-83
2023/06/30 07:01:35;;;;;;;30.50;4.20;;;;;;;;;;110058;1263;22235;-83
2023/06/30 07:04:08;;;;;;;16.30;3.60;;;;;;;;;;110104;1281;22306;-83
2023/06/30 07:06:38;;;;;;;16.90;3.20;;;;;;;;;;110006;1281;22121;-83
2023/06/30 07:09:17;;;;;;;17.20;3.00;;;;;;;;;;110085;1281;22335;-83
2023/06/30 07:11:43;;;;;;;8.70;2.50;;;;;;;;;;110003;1267;22867;-83
2023/06/30 07:14:10;;;;;;;12.70;2.80;;;;;;;;;;110024;1281;22127;-83
2023/06/30 07:16:40;;;;;;;11.30;2.80;;;;;;;;;;110009;1281;22863;-83
2023/06/30 07:19:09;;;;;;;16.00;2.90;;;;;;;;;;110030;1281;22495;-83
2023/06/30 07:21:37;;;;;;;12.40;2.90;;;;;;;;;;110059;1257;22190;-84
2023/06/30 07:24:05;;;;;;;14.70;3.10;;;;;;;;;;110090;1281;22167;-83
2023/06/30 07:26:35;;;;;;;13.00;3.00;;;;;;;;;;110043;1281;22901;-83
2023/06/30 07:29:03;;;;;;;14.90;3.70;;;;;;;;;;110036;1281;22121;-84
2023/06/30 07:38:44;;;;;;;34.10;4.90;;;;;;;;;;110000;1279;22110;-84
2023/06/30 07:41:14;;;;;;;31.80;5.00;;;;;;;;;;110310;1279;22119;-84
2023/06/30 07:43:44;;;;;;;35.10;5.00;;;;;;;;;;110215;1263;22121;-83
2023/06/30 07:46:16;;;;;;;37.40;5.00;;;;;;;;;;110155;1279;22951;-83
2023/06/30 07:48:44;;;;;;;25.20;4.30;;;;;;;;;;110233;1279;22194;-83
2023/06/30 07:51:22;;;;;;;24.60;3.90;;;;;;;;;;110118;1280;22862;-83
2023/06/30 07:53:51;;;;;;;35.80;5.20;;;;;;;;;;110106;1258;22085;-84
2023/06/30 07:56:21;;;;;;;17.10;4.60;;;;;;;;;;110210;1280;22129;-84
2023/06/30 07:58:49;;;;;;;19.80;3.90;;;;;;;;;;110113;1280;22743;-83
2023/06/30 08:01:18;;;;;;;16.90;3.60;;;;;;;;;;110134;1280;22143;-83
2023/06/30 08:03:48;;;;;;;28.70;4.30;;;;;;;;;;110175;1257;22883;-83
2023/06/30 08:06:18;;;;;;;22.10;4.30;;;;;;;;;;110091;1280;22129;-83
2023/06/30 08:08:50;;;;;;;60.40;6.20;;;;;;;;;;110203;1279;22109;-84
2023/06/30 08:11:19;;;;;;;21.70;4.20;;;;;;;;;;110032;1280;23324;-84
2023/06/30 08:13:48;;;;;;;14.50;3.60;;;;;;;;;;110108;1279;22409;-84
2023/06/30 08:16:36;;;;;;;10.40;2.90;;;;;;;;;;110152;1267;22119;-83
2023/06/30 08:19:16;;;;;;;;;;;;;;;;;;;;;
2023/06/30 08:25:49;;;;;;;11.30;3.30;;;;;;;;;;110024;1263;22156;-84
2023/06/30 08:28:16;;;;;;;16.40;3.30;;;;;;;;;;109940;1284;21740;-84
2023/06/30 08:30:45;;;;;;;15.80;3.10;;;;;;;;;;109862;1285;22371;-84
2023/06/30 08:33:14;;;;;;;11.60;3.10;;;;;;;;;;109794;1284;22231;-83
2023/06/30 08:35:46;;;;;;;12.10;2.80;;;;;;;;;;109908;1263;22194;-83
2023/06/30 08:38:14;;;;;;;13.20;3.40;;;;;;;;;;109881;1284;22181;-83
2023/06/30 08:40:42;;;;;;;9.20;3.30;;;;;;;;;;109879;1284;22591;-83
2023/06/30 08:43:12;;;;;;;20.00;3.50;;;;;;;;;;109934;1285;22953;-83
2023/06/30 08:45:40;;;;;;;15.40;2.90;;;;;;;;;;109851;1269;22203;-83
2023/06/30 08:55:09;;;;;;;15.50;3.40;;;;;;;;;;103843;1302;545731;-87
2023/06/30 08:57:45;;;;;;;9.40;3.00;;;;;;;;;;106323;1288;24376;-84
2023/06/30 09:00:12;;;;;;;12.80;3.50;;;;;;;;;;106072;1288;23256;-84
2023/06/30 09:02:39;;;;;;;10.00;2.80;;;;;;;;;;106101;1288;22537;-86
2023/06/30 09:05:07;;;;;;;10.80;5.00;;;;;;;;;;106091;1270;22539;-86
2023/06/30 09:07:51;;;;;;;12.20;3.00;;;;;;;;;;104916;1288;3079344;-83
2023/06/30 09:10:18;;;;;;;15.60;3.60;;;;;;;;;;106376;1285;22543;-88
2023/06/30 09:12:48;;;;;;;11.90;3.20;;;;;;;;;;106389;1285;22756;-83
2023/06/30 09:15:17;;;;;;;11.20;3.40;;;;;;;;;;106466;1277;22526;-87
2023/06/30 09:17:44;;;;;;;8.50;2.90;;;;;;;;;;106372;1279;22768;-84
2023/06/30 09:20:12;;;;;;;9.70;2.80;;;;;;;;;;106176;1283;22502;-83
2023/06/30 09:22:41;;;;;;;8.90;2.80;;;;;;;;;;106109;1278;25325;-85
2023/06/30 09:25:31;;;;;;;16.20;3.30;;;;;;;;;;106288;1267;22542;-84
2023/06/30 09:28:06;;;;;;;9.50;3.10;;;;;;;;;;106986;1270;23089;-83
2023/06/30 09:30:34;;;;;;;10.60;3.80;;;;;;;;;;106876;1253;24291;-83
2023/06/30 09:33:04;;;;;;;10.40;3.40;;;;;;;;;;106902;1269;22575;-84
2023/06/30 09:35:41;;;;;;;8.80;2.70;;;;;;;;;;106927;1275;22662;-83
2023/06/30 09:38:13;;;;;;;7.80;2.70;;;;;;;;;;106826;1272;22582;-85
2023/06/30 09:40:48;;;;;;;9.60;2.90;;;;;;;;;;106949;1262;22524;-89
2023/06/30 09:43:18;;;;;;;6.90;2.70;;;;;;;;;;106843;1269;24381;-83
2023/06/30 09:46:01;;;;;;;7.80;3.10;;;;;;;;;;106869;1257;25314;-88
2023/06/30 09:48:31;;;;;;;7.80;2.80;;;;;;;;;;106880;1272;22535;-90
2023/06/30 09:50:58;;;;;;;7.20;2.50;;;;;;;;;;106887;1270;22633;-89
2023/06/30 09:53:25;;;;;;;9.30;2.80;;;;;;;;;;106911;1270;25285;-84
2023/06/30 09:56:03;;;;;;;7.40;2.40;;;;;;;;;;106816;1260;22734;-84
2023/06/30 09:58:37;;;;;;;9.00;2.80;;;;;;;;;;106882;1266;24351;-84
2023/06/30 10:01:04;;;;;;;9.10;3.80;;;;;;;;;;106820;1278;24215;-86
2023/06/30 10:03:37;;;;;;;8.50;3.50;;;;;;;;;;106926;1278;25409;-83
2023/06/30 10:06:04;;;;;;;9.30;3.30;;;;;;;;;;106817;1260;22536;-88
2023/06/30 10:08:34;;;;;;;10.50;3.20;;;;;;;;;;106738;1278;24207;-84
2023/06/30 10:11:01;;;;;;;10.40;3.30;;;;;;;;;;106578;1272;25826;-84
2023/06/30 10:13:28;;;;;;;7.40;3.00;;;;;;;;;;106647;1278;25318;-86
2023/06/30 10:15:56;;;;;;;7.80;2.90;;;;;;;;;;106900;1258;25406;-84
2023/06/30 10:18:23;;;;;;;11.00;3.00;;;;;;;;;;106942;1278;22536;-85
2023/06/30 10:20:50;;;;;;;8.70;3.00;;;;;;;;;;106793;1273;24203;-84
2023/06/30 10:23:19;;;;;;;7.20;2.90;;;;;;;;;;106726;1267;22540;-86
2023/06/30 10:25:46;;;;;;;7.60;3.20;;;;;;;;;;106915;1278;22535;-89
2023/06/30 10:28:13;;;;;;;7.80;2.60;;;;;;;;;;106578;1275;22535;-83
2023/06/30 10:30:40;;;;;;;7.20;3.00;;;;;;;;;;106715;1272;22629;-83
2023/06/30 10:33:07;;;;;;;9.90;3.10;;;;;;;;;;106710;1272;25410;-84
2023/06/30 10:35:35;;;;;;;9.10;3.10;;;;;;;;;;106671;1270;22544;-85
2023/06/30 10:38:05;;;;;;;8.00;3.00;;;;;;;;;;106883;1270;25331;-83
2023/06/30 10:40:37;;;;;;;8.20;2.90;;;;;;;;;;106831;1278;22531;-86
2023/06/30 10:43:05;;;;;;;9.70;3.10;;;;;;;;;;106891;1275;22602;-84
2023/06/30 10:45:36;;;;;;;9.20;3.40;;;;;;;;;;106854;1279;22529;-86
2023/06/30 10:48:12;;;;;;;7.80;2.80;;;;;;;;;;106916;1260;22561;-85
2023/06/30 10:50:47;;;;;;;10.20;3.20;;;;;;;;;;106791;1272;22526;-89
2023/06/30 10:53:18;;;;;;;9.90;3.30;;;;;;;;;;106835;1279;23680;-85
2023/06/30 10:55:45;;;;;;;6.40;3.00;;;;;;;;;;106766;1279;22608;-84
2023/06/30 10:58:20;;;;;;;9.30;3.00;;;;;;;;;;106857;1261;22530;-84
2023/06/30 11:01:04;;;;;;;8.00;3.30;;;;;;;;;;106969;1271;21762;-87
2023/06/30 11:04:02;;;;;;;6.70;2.90;;;;;;;;;;106904;1272;25587;-84
2023/06/30 11:06:35;;;;;;;9.50;2.90;;;;;;;;;;106865;1256;24357;-90
2023/06/30 11:09:13;;;;;;;10.20;2.70;;;;;;;;;;106838;1278;24217;-84
2023/06/30 11:11:49;;;;;;;7.10;3.30;;;;;;;;;;106774;1278;25391;-87
2023/06/30 11:14:34;;;;;;;8.50;3.20;;;;;;;;;;106863;1278;24867;-83
2023/06/30 11:17:07;;;;;;;9.10;3.20;;;;;;;;;;106855;1257;22527;-85
2023/06/30 11:19:35;;;;;;;8.30;3.10;;;;;;;;;;106902;1275;24209;-86
2023/06/30 11:22:25;;;;;;;10.20;3.70;;;;;;;;;;106885;1269;25393;-86
2023/06/30 11:24:52;;;;;;;13.10;3.60;;;;;;;;;;107066;1253;24206;-84
2023/06/30 11:27:22;;;;;;;8.00;3.20;;;;;;;;;;106903;1269;22760;-84
2023/06/30 11:29:55;;;;;;;10.90;3.10;;;;;;;;;;106849;1268;22973;-83
2023/06/30 11:32:29;;;;;;;9.90;3.40;;;;;;;;;;107074;1269;23114;-84
2023/06/30 11:34:57;;;;;;;11.10;3.30;;;;;;;;;;106970;1269;22514;-86
2023/06/30 11:37:26;;;;;;;11.80;3.40;;;;;;;;;;107016;1254;22549;-84
2023/06/30 11:40:02;;;;;;;14.70;4.00;;;;;;;;;;106933;1267;22544;-85
2023/06/30 11:42:29;;;;;;;14.40;3.30;;;;;;;;;;106921;1269;25360;-86
2023/06/30 11:44:58;;;;;;;11.60;3.30;;;;;;;;;;106966;1273;25285;-89
2023/06/30 11:47:25;;;;;;;8.20;3.40;;;;;;;;;;106873;1252;22758;-85
2023/06/30 11:49:53;;;;;;;9.60;3.40;;;;;;;;;;106922;1271;22541;-85
2023/06/30 11:52:32;;;;;;;9.00;3.00;;;;;;;;;;106970;1268;22485;-89
2023/06/30 11:55:10;;;;;;;10.40;3.20;;;;;;;;;;106977;1271;22811;-89
2023/06/30 11:57:40;;;;;;;9.30;3.70;;;;;;;;;;106962;1258;24215;-89
2023/06/30 12:00:25;;;;;;;9.10;3.30;;;;;;;;;;107099;1269;25503;-86
2023/06/30 12:02:58;;;;;;;10.10;3.90;;;;;;;;;;106920;1267;22523;-84
2023/06/30 12:05:26;;;;;;;9.40;3.60;;;;;;;;;;106894;1269;24541;-83
2023/06/30 12:08:14;;;;;;;8.90;3.40;;;;;;;;;;107096;1254;25605;-84
2023/06/30 12:10:41;;;;;;;9.00;3.20;;;;;;;;;;106972;1276;22601;-85
2023/06/30 12:13:08;;;;;;;9.80;3.70;;;;;;;;;;107061;1269;22618;-86
2023/06/30 12:15:36;;;;;;;9.10;3.50;;;;;;;;;;106946;1267;22783;-84
2023/06/30 12:18:09;;;;;;;8.90;3.30;;;;;;;;;;107120;1269;22509;-88
2023/06/30 12:20:37;;;;;;;12.80;3.70;;;;;;;;;;106925;1268;22534;-84
2023/06/30 12:23:10;;;;;;;11.00;3.90;;;;;;;;;;107016;1272;25499;-85
2023/06/30 12:25:40;;;;;;;11.20;3.60;;;;;;;;;;106985;1269;22530;-84
2023/06/30 12:28:09;;;;;;;11.70;3.80;;;;;;;;;;107178;1254;25280;-84
2023/06/30 12:30:43;;;;;;;9.90;4.10;;;;;;;;;;107083;1269;24347;-87
2023/06/30 12:33:18;;;;;;;11.90;5.00;;;;;;;;;;107196;1269;24346;-84
2023/06/30 12:35:53;;;;;;;13.80;5.20;;;;;;;;;;107235;1269;24238;-90
2023/06/30 12:38:40;;;;;;;14.00;5.90;;;;;;;;;;107242;1253;22823;-89
2023/06/30 12:41:17;;;;;;;9.90;4.40;;;;;;;;;;107051;1272;24250;-84
2023/06/30 12:44:00;;;;;;;17.10;5.60;;;;;;;;;;107171;1252;22482;-82
2023/06/30 12:46:33;;;;;;;11.90;5.30;;;;;;;;;;107161;1275;22523;-83
2023/06/30 12:50:06;;;;;;;11.50;5.70;;;;;;;;;;106971;1259;22524;-84
2023/06/30 12:52:07;;;;;;;15.70;5.60;;;;;;;;;;107077;1275;22714;-87
2023/06/30 12:54:48;;;;;;;11.60;5.20;;;;;;;;;;107170;1272;22589;-83
2023/06/30 12:57:23;;;;;;;13.50;5.40;;;;;;;;;;107005;1275;22665;-82
2023/06/30 12:59:58;;;;;;;12.10;5.40;;;;;;;;;;106937;1257;24244;-82
2023/06/30 13:02:27;;;;;;;12.00;5.30;;;;;;;;;;106962;1275;22555;-84
2023/06/30 13:05:00;;;;;;;12.50;5.80;;;;;;;;;;110457;1275;22040;-83
2023/06/30 13:07:27;;;;;;;14.00;5.60;;;;;;;;;;110482;1275;22175;-83
2023/06/30 13:09:56;;;;;;;10.70;5.60;;;;;;;;;;110577;1253;22372;-83
2023/06/30 13:12:29;;;;;;;12.80;6.00;;;;;;;;;;110481;1275;22108;-83
2023/06/30 13:14:58;;;;;;;13.20;6.10;;;;;;;;;;110553;1275;22099;-84
2023/06/30 13:17:28;;;;;;;10.70;5.40;;;;;;;;;;110626;1269;22894;-84
2023/06/30 13:19:56;;;;;;;14.10;6.90;;;;;;;;;;110580;1256;22158;-83
2023/06/30 13:22:23;;;;;;;14.10;7.30;;;;;;;;;;110574;1275;22118;-83
2023/06/30 13:24:52;;;;;;;20.80;8.70;;;;;;;;;;110570;1275;22117;-83
2023/06/30 13:27:22;;;;;;;15.10;7.90;;;;;;;;;;110602;1275;22332;-83
2023/06/30 13:29:52;;;;;;;12.60;6.70;;;;;;;;;;110553;1256;22355;-81
2023/06/30 13:32:19;;;;;;;11.80;5.90;;;;;;;;;;110581;1275;22366;-81
2023/06/30 13:34:47;;;;;;;13.80;7.00;;;;;;;;;;110612;1275;21783;-81
2023/06/30 13:37:14;;;;;;;12.60;6.50;;;;;;;;;;110616;1275;22184;-81
2023/06/30 13:39:41;;;;;;;13.00;6.40;;;;;;;;;;110559;1257;22129;-81
2023/06/30 13:42:08;;;;;;;10.90;5.90;;;;;;;;;;110547;1275;22135;-81
2023/06/30 13:44:36;;;;;;;10.40;5.10;;;;;;;;;;110616;1275;22585;-81
2023/06/30 13:47:03;;;;;;;11.10;5.10;;;;;;;;;;110606;1275;22220;-81
2023/06/30 13:49:30;;;;;;;11.50;4.50;;;;;;;;;;110612;1275;22322;-81
2023/06/30 13:51:56;;;;;;;10.50;4.30;;;;;;;;;;110730;1257;22177;-81
2023/06/30 13:54:23;;;;;;;8.80;4.60;;;;;;;;;;110529;1275;22128;-81
2023/06/30 13:56:51;;;;;;;9.10;4.80;;;;;;;;;;110554;1275;22312;-81
2023/06/30 13:59:18;;;;;;;18.40;10.50;;;;;;;;;;110509;1275;22101;-81
2023/06/30 14:01:45;;;;;;;65.90;44.00;;;;;;;;;;110743;1256;22739;-81
2023/06/30 14:04:12;;;;;;;60.00;40.00;;;;;;;;;;110469;1275;22275;-81
2023/06/30 14:06:39;;;;;;;43.50;30.10;;;;;;;;;;110551;1274;22831;-81
2023/06/30 14:09:09;;;;;;;34.80;18.60;;;;;;;;;;110419;1275;22120;-81
2023/06/30 14:11:37;;;;;;;16.20;8.90;;;;;;;;;;110537;1259;22096;-82
2023/06/30 14:14:05;;;;;;;12.80;6.50;;;;;;;;;;110545;1275;22099;-81
2023/06/30 14:16:32;;;;;;;66.50;30.50;;;;;;;;;;110630;1275;22081;-81
2023/06/30 14:19:01;;;;;;;20.00;9.90;;;;;;;;;;110623;1275;22143;-81
2023/06/30 14:21:28;;;;;;;20.70;12.50;;;;;;;;;;110499;1259;22157;-82
2023/06/30 14:23:55;;;;;;;17.00;10.00;;;;;;;;;;110625;1275;22141;-81
2023/06/30 14:26:25;;;;;;;13.50;7.20;;;;;;;;;;110536;1275;22129;-81
2023/06/30 14:28:52;;;;;;;12.60;7.30;;;;;;;;;;110549;1275;22427;-81
2023/06/30 14:31:19;;;;;;;14.30;7.20;;;;;;;;;;110741;1257;22841;-81
2023/06/30 14:33:46;;;;;;;12.00;6.20;;;;;;;;;;110554;1275;22126;-81
2023/06/30 14:36:12;;;;;;;11.70;6.60;;;;;;;;;;110491;1275;22090;-81
2023/06/30 14:38:39;;;;;;;12.10;6.30;;;;;;;;;;110284;1275;22120;-81
2023/06/30 14:41:06;;;;;;;10.20;5.80;;;;;;;;;;110547;1256;22121;-81
2023/06/30 14:43:33;;;;;;;10.10;5.00;;;;;;;;;;110425;1275;22166;-81
2023/06/30 14:45:59;;;;;;;10.50;5.00;;;;;;;;;;110578;1275;22395;-81
2023/06/30 14:48:26;;;;;;;12.50;5.60;;;;;;;;;;110571;1275;22118;-81
2023/06/30 14:50:53;;;;;;;10.10;4.90;;;;;;;;;;110611;1253;22358;-81
2023/06/30 14:53:19;;;;;;;11.50;5.20;;;;;;;;;;110498;1276;22145;-81
2023/06/30 14:55:46;;;;;;;11.90;4.70;;;;;;;;;;110357;1276;22515;-81
2023/06/30 14:58:13;;;;;;;8.70;4.20;;;;;;;;;;110392;1276;22094;-81
2023/06/30 15:00:40;;;;;;;9.90;4.20;;;;;;;;;;110466;1276;22133;-81
2023/06/30 15:03:07;;;;;;;7.70;4.10;;;;;;;;;;110929;1256;22052;-81
2023/06/30 15:05:34;;;;;;;9.80;4.50;;;;;;;;;;110649;1276;22285;-81
2023/06/30 15:08:01;;;;;;;10.30;4.90;;;;;;;;;;110623;1276;22092;-81
2023/06/30 15:10:28;;;;;;;9.60;4.50;;;;;;;;;;110466;1276;22213;-81
2023/06/30 15:12:55;;;;;;;8.40;4.60;;;;;;;;;;110718;1257;21703;-81
2023/06/30 15:15:21;;;;;;;9.20;4.40;;;;;;;;;;110501;1276;22735;-81
2023/06/30 15:17:48;;;;;;;8.80;4.20;;;;;;;;;;110479;1276;22126;-81
2023/06/30 15:20:15;;;;;;;8.70;4.10;;;;;;;;;;110656;1276;22110;-81
2023/06/30 15:22:42;;;;;;;8.00;4.10;;;;;;;;;;110639;1257;23188;-81
2023/06/30 15:25:29;;;;;;;10.20;4.30;;;;;;;;;;110481;1276;22126;-81
2023/06/30 15:27:56;;;;;;;16.80;6.10;;;;;;;;;;110604;1276;22123;-81
2023/06/30 15:30:23;;;;;;;20.00;6.20;;;;;;;;;;110503;1276;22834;-81
2023/06/30 15:32:50;;;;;;;21.30;6.90;;;;;;;;;;110458;1259;22814;-81
2023/06/30 15:35:17;;;;;;;13.60;6.90;;;;;;;;;;110627;1276;22908;-81
2023/06/30 15:37:44;;;;;;;19.50;6.60;;;;;;;;;;110650;1276;22127;-81
2023/06/30 15:40:12;;;;;;;14.20;6.00;;;;;;;;;;110496;1276;22193;-81
2023/06/30 15:42:38;;;;;;;13.90;7.70;;;;;;;;;;110453;1259;22120;-81
2023/06/30 15:45:13;;;;;;;14.90;6.70;;;;;;;;;;110480;1276;22109;-81